sensor_id;sensor_type;location;lat;lon;timestamp;P1;durP1;ratioP1;P2;durP2;ratioP2
4208;SDS011;36320;48.860;2.380;2022-12-07T00:01:35;10.77;;;3.20;;
4208;SDS011;36320;48.860;2.380;2022-12-07T00:04:05;15.57;;;2.97;;
4208;SDS011;36320;48.860;2.380;2022-12-07T00:06:39;10.15;;;3.10;;
4208;SDS011;36320;48.860;2.380;2022-12-07T00:09:07;9.32;;;3.03;;
4208;SDS011;36320;48.860;2.380;2022-12-07T00:11:35;12.07;;;3.33;;
4208;SDS011;36320;48.860;2.380;2022-12-07T00:14:03;11.65;;;3.10;;
4208;SDS011;36320;48.860;2.380;2022-12-07T00:16:31;10.55;;;3.55;;
4208;SDS011;36320;48.860;2.380;2022-12-07T00:18:58;13.05;;;3.10;;
4208;SDS011;36320;48.860;2.380;2022-12-07T00:21:25;11.82;;;3.72;;
4208;SDS011;36320;48.860;2.380;2022-12-07T00:23:54;10.02;;;3.45;;
4208;SDS011;36320;48.860;2.380;2022-12-07T00:26:22;12.80;;;3.50;;
4208;SDS011;36320;48.860;2.380;2022-12-07T00:28:50;15.73;;;4.75;;
4208;SDS011;36320;48.860;2.380;2022-12-07T00:31:18;13.38;;;3.25;;
4208;SDS011;36320;48.860;2.380;2022-12-07T00:33:46;10.65;;;4.10;;
4208;SDS011;36320;48.860;2.380;2022-12-07T00:36:13;9.77;;;3.40;;
4208;SDS011;36320;48.860;2.380;2022-12-07T00:38:43;11.02;;;2.80;;
4208;SDS011;36320;48.860;2.380;2022-12-07T00:41:10;14.10;;;3.53;;
4208;SDS011;36320;48.860;2.380;2022-12-07T00:43:44;11.18;;;3.65;;
4208;SDS011;36320;48.860;2.380;2022-12-07T00:46:11;12.77;;;3.60;;
4208;SDS011;36320;48.860;2.380;2022-12-07T00:48:38;8.75;;;2.13;;
4208;SDS011;36320;48.860;2.380;2022-12-07T00:51:04;11.23;;;3.00;;
4208;SDS011;36320;48.860;2.380;2022-12-07T00:53:30;11.65;;;3.40;;
4208;SDS011;36320;48.860;2.380;2022-12-07T00:56:02;11.98;;;2.90;;
4208;SDS011;36320;48.860;2.380;2022-12-07T00:58:55;12.02;;;2.67;;
4208;SDS011;36320;48.860;2.380;2022-12-07T01:01:21;10.82;;;3.28;;
4208;SDS011;36320;48.860;2.380;2022-12-07T01:03:48;10.93;;;2.60;;
4208;SDS011;36320;48.860;2.380;2022-12-07T01:06:14;16.63;;;3.00;;
4208;SDS011;36320;48.860;2.380;2022-12-07T01:08:41;10.98;;;3.35;;
4208;SDS011;36320;48.860;2.380;2022-12-07T01:11:08;15.13;;;3.50;;
4208;SDS011;36320;48.860;2.380;2022-12-07T01:13:36;13.77;;;4.05;;
4208;SDS011;36320;48.860;2.380;2022-12-07T01:16:03;13.77;;;3.27;;
4208;SDS011;36320;48.860;2.380;2022-12-07T01:18:32;11.68;;;3.20;;
4208;SDS011;36320;48.860;2.380;2022-12-07T01:21:04;15.00;;;3.53;;
4208;SDS011;36320;48.860;2.380;2022-12-07T01:23:39;13.23;;;3.23;;
4208;SDS011;36320;48.860;2.380;2022-12-07T01:26:10;12.73;;;4.83;;
4208;SDS011;36320;48.860;2.380;2022-12-07T01:28:37;14.77;;;3.17;;
4208;SDS011;36320;48.860;2.380;2022-12-07T01:31:14;9.60;;;2.60;;
4208;SDS011;36320;48.860;2.380;2022-12-07T01:33:42;8.52;;;2.67;;
4208;SDS011;36320;48.860;2.380;2022-12-07T01:38:42;12.85;;;4.03;;
4208;SDS011;36320;48.860;2.380;2022-12-07T01:41:08;10.50;;;3.00;;
4208;SDS011;36320;48.860;2.380;2022-12-07T01:43:34;9.23;;;3.20;;
4208;SDS011;36320;48.860;2.380;2022-12-07T01:46:01;16.17;;;3.65;;
4208;SDS011;36320;48.860;2.380;2022-12-07T01:48:30;22.30;;;4.03;;
4208;SDS011;36320;48.860;2.380;2022-12-07T01:51:05;10.90;;;2.83;;
4208;SDS011;36320;48.860;2.380;2022-12-07T01:53:38;13.07;;;3.93;;
4208;SDS011;36320;48.860;2.380;2022-12-07T01:56:08;9.77;;;2.97;;
4208;SDS011;36320;48.860;2.380;2022-12-07T01:58:37;11.77;;;2.80;;
4208;SDS011;36320;48.860;2.380;2022-12-07T02:01:03;10.90;;;3.47;;
4208;SDS011;36320;48.860;2.380;2022-12-07T02:03:42;9.83;;;2.63;;
4208;SDS011;36320;48.860;2.380;2022-12-07T02:06:10;8.95;;;2.70;;
4208;SDS011;36320;48.860;2.380;2022-12-07T02:08:38;11.70;;;3.63;;
4208;SDS011;36320;48.860;2.380;2022-12-07T02:11:04;8.32;;;3.10;;
4208;SDS011;36320;48.860;2.380;2022-12-07T02:13:34;9.40;;;3.13;;
4208;SDS011;36320;48.860;2.380;2022-12-07T02:18:44;7.60;;;2.90;;
4208;SDS011;36320;48.860;2.380;2022-12-07T02:29:27;8.80;;;2.90;;
4208;SDS011;36320;48.860;2.380;2022-12-07T02:32:14;12.67;;;2.60;;
4208;SDS011;36320;48.860;2.380;2022-12-07T02:35:06;7.55;;;1.60;;
4208;SDS011;36320;48.860;2.380;2022-12-07T02:37:39;16.30;;;3.13;;
4208;SDS011;36320;48.860;2.380;2022-12-07T02:40:38;12.05;;;2.42;;
4208;SDS011;36320;48.860;2.380;2022-12-07T02:43:14;9.13;;;2.72;;
4208;SDS011;36320;48.860;2.380;2022-12-07T02:45:50;9.43;;;3.17;;
4208;SDS011;36320;48.860;2.380;2022-12-07T02:48:17;11.40;;;2.80;;
4208;SDS011;36320;48.860;2.380;2022-12-07T02:50:45;10.90;;;3.15;;
4208;SDS011;36320;48.860;2.380;2022-12-07T02:55:57;7.72;;;2.20;;
4208;SDS011;36320;48.860;2.380;2022-12-07T02:59:02;9.98;;;2.85;;
4208;SDS011;36320;48.860;2.380;2022-12-07T03:10:32;7.82;;;2.05;;
4208;SDS011;36320;48.860;2.380;2022-12-07T03:13:12;13.05;;;2.72;;
4208;SDS011;36320;48.860;2.380;2022-12-07T03:19:20;7.75;;;2.20;;
4208;SDS011;36320;48.860;2.380;2022-12-07T03:21:41;11.57;;;2.90;;
4208;SDS011;36320;48.860;2.380;2022-12-07T03:24:29;10.32;;;2.90;;
4208;SDS011;36320;48.860;2.380;2022-12-07T03:27:03;8.85;;;2.10;;
4208;SDS011;36320;48.860;2.380;2022-12-07T03:29:37;7.80;;;2.40;;
4208;SDS011;36320;48.860;2.380;2022-12-07T03:32:09;10.43;;;2.83;;
4208;SDS011;36320;48.860;2.380;2022-12-07T03:34:52;13.40;;;3.53;;
4208;SDS011;36320;48.860;2.380;2022-12-07T03:43:04;10.80;;;3.00;;
4208;SDS011;36320;48.860;2.380;2022-12-07T03:45:38;12.10;;;2.90;;
4208;SDS011;36320;48.860;2.380;2022-12-07T03:48:08;11.55;;;3.08;;
4208;SDS011;36320;48.860;2.380;2022-12-07T03:50:50;10.57;;;2.70;;
4208;SDS011;36320;48.860;2.380;2022-12-07T03:53:33;11.77;;;3.20;;
4208;SDS011;36320;48.860;2.380;2022-12-07T03:56:04;12.93;;;3.53;;
4208;SDS011;36320;48.860;2.380;2022-12-07T03:58:31;10.57;;;2.30;;
4208;SDS011;36320;48.860;2.380;2022-12-07T04:00:58;8.43;;;2.30;;
4208;SDS011;36320;48.860;2.380;2022-12-07T04:03:23;8.55;;;2.80;;
4208;SDS011;36320;48.860;2.380;2022-12-07T04:05:49;12.13;;;3.30;;
4208;SDS011;36320;48.860;2.380;2022-12-07T04:08:15;10.02;;;2.58;;
4208;SDS011;36320;48.860;2.380;2022-12-07T04:10:41;13.25;;;2.95;;
4208;SDS011;36320;48.860;2.380;2022-12-07T04:13:06;8.23;;;2.10;;
4208;SDS011;36320;48.860;2.380;2022-12-07T04:15:32;12.70;;;2.60;;
4208;SDS011;36320;48.860;2.380;2022-12-07T04:17:57;9.37;;;2.40;;
4208;SDS011;36320;48.860;2.380;2022-12-07T04:20:23;8.10;;;2.10;;
4208;SDS011;36320;48.860;2.380;2022-12-07T04:22:49;9.90;;;2.10;;
4208;SDS011;36320;48.860;2.380;2022-12-07T04:25:15;9.17;;;2.33;;
4208;SDS011;36320;48.860;2.380;2022-12-07T04:27:41;7.43;;;2.00;;
4208;SDS011;36320;48.860;2.380;2022-12-07T04:30:06;9.17;;;2.50;;
4208;SDS011;36320;48.860;2.380;2022-12-07T04:32:32;8.10;;;2.30;;
4208;SDS011;36320;48.860;2.380;2022-12-07T04:34:58;9.20;;;2.17;;
4208;SDS011;36320;48.860;2.380;2022-12-07T04:37:24;12.90;;;2.57;;
4208;SDS011;36320;48.860;2.380;2022-12-07T04:39:49;7.53;;;1.98;;
4208;SDS011;36320;48.860;2.380;2022-12-07T04:42:15;12.03;;;2.23;;
4208;SDS011;36320;48.860;2.380;2022-12-07T04:44:41;6.40;;;1.77;;
4208;SDS011;36320;48.860;2.380;2022-12-07T04:47:06;9.47;;;2.20;;
4208;SDS011;36320;48.860;2.380;2022-12-07T04:49:32;8.35;;;2.40;;
4208;SDS011;36320;48.860;2.380;2022-12-07T04:51:58;9.25;;;2.40;;
4208;SDS011;36320;48.860;2.380;2022-12-07T04:54:24;7.90;;;1.93;;
4208;SDS011;36320;48.860;2.380;2022-12-07T04:56:49;10.10;;;2.35;;
4208;SDS011;36320;48.860;2.380;2022-12-07T04:59:15;10.10;;;2.10;;
4208;SDS011;36320;48.860;2.380;2022-12-07T05:01:42;9.40;;;2.78;;
4208;SDS011;36320;48.860;2.380;2022-12-07T05:04:08;8.25;;;2.45;;
4208;SDS011;36320;48.860;2.380;2022-12-07T05:06:33;7.67;;;2.10;;
4208;SDS011;36320;48.860;2.380;2022-12-07T05:08:59;10.75;;;2.40;;
4208;SDS011;36320;48.860;2.380;2022-12-07T05:11:25;6.60;;;1.63;;
4208;SDS011;36320;48.860;2.380;2022-12-07T05:14:03;6.10;;;1.60;;
4208;SDS011;36320;48.860;2.380;2022-12-07T05:16:38;6.63;;;1.83;;
4208;SDS011;36320;48.860;2.380;2022-12-07T05:19:04;15.95;;;2.42;;
4208;SDS011;36320;48.860;2.380;2022-12-07T05:21:30;7.15;;;1.90;;
4208;SDS011;36320;48.860;2.380;2022-12-07T05:23:56;9.47;;;2.20;;
4208;SDS011;36320;48.860;2.380;2022-12-07T05:26:22;8.63;;;1.95;;
4208;SDS011;36320;48.860;2.380;2022-12-07T05:28:51;8.45;;;1.98;;
4208;SDS011;36320;48.860;2.380;2022-12-07T05:31:17;9.20;;;2.25;;
4208;SDS011;36320;48.860;2.380;2022-12-07T05:33:43;11.80;;;2.90;;
4208;SDS011;36320;48.860;2.380;2022-12-07T05:36:09;7.00;;;1.90;;
4208;SDS011;36320;48.860;2.380;2022-12-07T05:38:34;10.93;;;2.90;;
4208;SDS011;36320;48.860;2.380;2022-12-07T05:41:04;6.70;;;1.70;;
4208;SDS011;36320;48.860;2.380;2022-12-07T05:43:31;9.75;;;2.00;;
4208;SDS011;36320;48.860;2.380;2022-12-07T05:45:57;7.57;;;1.85;;
4208;SDS011;36320;48.860;2.380;2022-12-07T05:48:23;8.07;;;1.70;;
4208;SDS011;36320;48.860;2.380;2022-12-07T05:50:50;6.43;;;1.70;;
4208;SDS011;36320;48.860;2.380;2022-12-07T05:53:16;6.53;;;1.80;;
4208;SDS011;36320;48.860;2.380;2022-12-07T05:55:42;9.00;;;2.13;;
4208;SDS011;36320;48.860;2.380;2022-12-07T05:58:08;9.63;;;2.78;;
4208;SDS011;36320;48.860;2.380;2022-12-07T06:00:54;8.05;;;2.00;;
4208;SDS011;36320;48.860;2.380;2022-12-07T06:03:20;8.05;;;1.90;;
4208;SDS011;36320;48.860;2.380;2022-12-07T06:05:46;6.72;;;1.80;;
4208;SDS011;36320;48.860;2.380;2022-12-07T06:08:11;9.13;;;2.10;;
4208;SDS011;36320;48.860;2.380;2022-12-07T06:10:39;5.88;;;1.30;;
4208;SDS011;36320;48.860;2.380;2022-12-07T06:13:06;9.00;;;2.20;;
4208;SDS011;36320;48.860;2.380;2022-12-07T06:15:32;6.80;;;1.90;;
4208;SDS011;36320;48.860;2.380;2022-12-07T06:17:58;7.80;;;2.22;;
4208;SDS011;36320;48.860;2.380;2022-12-07T06:20:23;5.73;;;1.30;;
4208;SDS011;36320;48.860;2.380;2022-12-07T06:22:49;6.47;;;1.67;;
4208;SDS011;36320;48.860;2.380;2022-12-07T06:25:14;8.20;;;2.50;;
4208;SDS011;36320;48.860;2.380;2022-12-07T06:27:40;10.45;;;2.05;;
4208;SDS011;36320;48.860;2.380;2022-12-07T06:30:06;8.77;;;2.67;;
4208;SDS011;36320;48.860;2.380;2022-12-07T06:32:33;7.57;;;2.28;;
4208;SDS011;36320;48.860;2.380;2022-12-07T06:35:03;8.07;;;2.30;;
4208;SDS011;36320;48.860;2.380;2022-12-07T06:37:29;8.07;;;2.35;;
4208;SDS011;36320;48.860;2.380;2022-12-07T06:39:55;6.55;;;1.77;;
4208;SDS011;36320;48.860;2.380;2022-12-07T06:42:21;10.97;;;2.20;;
4208;SDS011;36320;48.860;2.380;2022-12-07T06:44:47;7.80;;;2.40;;
4208;SDS011;36320;48.860;2.380;2022-12-07T06:47:12;7.78;;;1.60;;
4208;SDS011;36320;48.860;2.380;2022-12-07T06:49:38;7.80;;;1.87;;
4208;SDS011;36320;48.860;2.380;2022-12-07T06:52:04;7.53;;;2.03;;
4208;SDS011;36320;48.860;2.380;2022-12-07T06:54:30;6.65;;;1.92;;
4208;SDS011;36320;48.860;2.380;2022-12-07T06:56:56;7.40;;;2.10;;
4208;SDS011;36320;48.860;2.380;2022-12-07T06:59:22;8.27;;;1.88;;
4208;SDS011;36320;48.860;2.380;2022-12-07T07:01:48;10.90;;;2.67;;
4208;SDS011;36320;48.860;2.380;2022-12-07T07:04:14;8.10;;;1.85;;
4208;SDS011;36320;48.860;2.380;2022-12-07T07:06:39;6.85;;;1.70;;
4208;SDS011;36320;48.860;2.380;2022-12-07T07:09:05;6.30;;;1.60;;
4208;SDS011;36320;48.860;2.380;2022-12-07T07:11:31;7.78;;;2.03;;
4208;SDS011;36320;48.860;2.380;2022-12-07T07:13:56;6.30;;;1.53;;
4208;SDS011;36320;48.860;2.380;2022-12-07T07:16:27;6.82;;;1.80;;
4208;SDS011;36320;48.860;2.380;2022-12-07T07:18:54;7.47;;;1.90;;
4208;SDS011;36320;48.860;2.380;2022-12-07T07:21:19;10.75;;;2.50;;
4208;SDS011;36320;48.860;2.380;2022-12-07T07:23:45;7.50;;;2.10;;
4208;SDS011;36320;48.860;2.380;2022-12-07T07:26:11;11.60;;;2.10;;
4208;SDS011;36320;48.860;2.380;2022-12-07T07:28:36;6.80;;;2.00;;
4208;SDS011;36320;48.860;2.380;2022-12-07T07:31:02;6.60;;;1.90;;
4208;SDS011;36320;48.860;2.380;2022-12-07T07:33:28;7.03;;;2.20;;
4208;SDS011;36320;48.860;2.380;2022-12-07T07:35:53;8.10;;;2.03;;
4208;SDS011;36320;48.860;2.380;2022-12-07T07:38:19;10.50;;;2.20;;
4208;SDS011;36320;48.860;2.380;2022-12-07T07:40:45;7.68;;;2.20;;
4208;SDS011;36320;48.860;2.380;2022-12-07T07:43:11;7.63;;;2.40;;
4208;SDS011;36320;48.860;2.380;2022-12-07T07:45:38;7.32;;;2.45;;
4208;SDS011;36320;48.860;2.380;2022-12-07T07:48:05;7.60;;;1.88;;
4208;SDS011;36320;48.860;2.380;2022-12-07T07:50:31;8.00;;;1.80;;
4208;SDS011;36320;48.860;2.380;2022-12-07T07:52:57;11.02;;;1.90;;
4208;SDS011;36320;48.860;2.380;2022-12-07T07:55:23;6.43;;;1.80;;
4208;SDS011;36320;48.860;2.380;2022-12-07T07:57:49;9.00;;;1.80;;
4208;SDS011;36320;48.860;2.380;2022-12-07T08:00:15;8.00;;;2.40;;
4208;SDS011;36320;48.860;2.380;2022-12-07T08:02:41;10.38;;;2.50;;
4208;SDS011;36320;48.860;2.380;2022-12-07T08:05:08;8.05;;;2.30;;
4208;SDS011;36320;48.860;2.380;2022-12-07T08:07:35;9.25;;;2.13;;
4208;SDS011;36320;48.860;2.380;2022-12-07T08:10:00;8.13;;;2.15;;
4208;SDS011;36320;48.860;2.380;2022-12-07T08:12:26;7.63;;;2.07;;
4208;SDS011;36320;48.860;2.380;2022-12-07T08:14:52;8.98;;;2.10;;
4208;SDS011;36320;48.860;2.380;2022-12-07T08:17:17;7.80;;;1.80;;
4208;SDS011;36320;48.860;2.380;2022-12-07T08:19:43;7.33;;;2.07;;
4208;SDS011;36320;48.860;2.380;2022-12-07T08:22:09;9.45;;;2.30;;
4208;SDS011;36320;48.860;2.380;2022-12-07T08:24:35;6.50;;;1.67;;
4208;SDS011;36320;48.860;2.380;2022-12-07T08:27:01;7.70;;;2.25;;
4208;SDS011;36320;48.860;2.380;2022-12-07T08:29:27;7.82;;;2.00;;
4208;SDS011;36320;48.860;2.380;2022-12-07T08:31:52;8.83;;;1.70;;
4208;SDS011;36320;48.860;2.380;2022-12-07T08:34:18;8.10;;;2.50;;
4208;SDS011;36320;48.860;2.380;2022-12-07T08:36:44;22.27;;;2.53;;
4208;SDS011;36320;48.860;2.380;2022-12-07T08:39:10;11.02;;;3.30;;
4208;SDS011;36320;48.860;2.380;2022-12-07T08:41:35;8.90;;;2.40;;
4208;SDS011;36320;48.860;2.380;2022-12-07T08:44:02;7.57;;;2.42;;
4208;SDS011;36320;48.860;2.380;2022-12-07T08:46:30;7.80;;;2.20;;
4208;SDS011;36320;48.860;2.380;2022-12-07T08:49:04;6.10;;;1.40;;
4208;SDS011;36320;48.860;2.380;2022-12-07T08:51:31;11.85;;;2.88;;
4208;SDS011;36320;48.860;2.380;2022-12-07T08:53:57;17.90;;;2.30;;
4208;SDS011;36320;48.860;2.380;2022-12-07T08:56:25;6.30;;;1.60;;
4208;SDS011;36320;48.860;2.380;2022-12-07T08:58:52;10.47;;;2.33;;
4208;SDS011;36320;48.860;2.380;2022-12-07T09:01:18;7.20;;;1.80;;
4208;SDS011;36320;48.860;2.380;2022-12-07T09:03:44;8.10;;;2.30;;
4208;SDS011;36320;48.860;2.380;2022-12-07T09:06:09;12.95;;;2.10;;
4208;SDS011;36320;48.860;2.380;2022-12-07T09:08:40;6.38;;;1.55;;
4208;SDS011;36320;48.860;2.380;2022-12-07T09:11:10;16.80;;;3.15;;
4208;SDS011;36320;48.860;2.380;2022-12-07T09:13:36;7.28;;;1.85;;
4208;SDS011;36320;48.860;2.380;2022-12-07T09:16:05;8.50;;;1.40;;
4208;SDS011;36320;48.860;2.380;2022-12-07T09:18:31;9.35;;;2.47;;
4208;SDS011;36320;48.860;2.380;2022-12-07T09:20:56;8.75;;;1.90;;
4208;SDS011;36320;48.860;2.380;2022-12-07T09:23:22;8.53;;;2.10;;
4208;SDS011;36320;48.860;2.380;2022-12-07T09:25:48;6.90;;;1.77;;
4208;SDS011;36320;48.860;2.380;2022-12-07T09:28:13;7.23;;;2.03;;
4208;SDS011;36320;48.860;2.380;2022-12-07T09:30:44;7.20;;;2.20;;
4208;SDS011;36320;48.860;2.380;2022-12-07T09:33:14;9.32;;;2.22;;
4208;SDS011;36320;48.860;2.380;2022-12-07T09:35:46;7.70;;;1.85;;
4208;SDS011;36320;48.860;2.380;2022-12-07T09:38:12;7.10;;;2.22;;
4208;SDS011;36320;48.860;2.380;2022-12-07T09:40:38;9.50;;;2.60;;
4208;SDS011;36320;48.860;2.380;2022-12-07T09:43:05;5.60;;;1.40;;
4208;SDS011;36320;48.860;2.380;2022-12-07T09:45:39;11.00;;;2.10;;
4208;SDS011;36320;48.860;2.380;2022-12-07T09:48:05;7.03;;;2.23;;
4208;SDS011;36320;48.860;2.380;2022-12-07T09:50:40;7.80;;;1.80;;
4208;SDS011;36320;48.860;2.380;2022-12-07T09:55:54;6.85;;;1.73;;
4208;SDS011;36320;48.860;2.380;2022-12-07T09:58:22;8.90;;;2.80;;
4208;SDS011;36320;48.860;2.380;2022-12-07T10:00:52;7.40;;;2.10;;
4208;SDS011;36320;48.860;2.380;2022-12-07T10:03:25;14.63;;;1.85;;
4208;SDS011;36320;48.860;2.380;2022-12-07T10:05:53;6.93;;;1.70;;
4208;SDS011;36320;48.860;2.380;2022-12-07T10:08:19;9.80;;;2.28;;
4208;SDS011;36320;48.860;2.380;2022-12-07T10:10:46;7.35;;;1.90;;
4208;SDS011;36320;48.860;2.380;2022-12-07T10:13:33;6.50;;;1.80;;
4208;SDS011;36320;48.860;2.380;2022-12-07T10:15:59;10.23;;;2.20;;
4208;SDS011;36320;48.860;2.380;2022-12-07T10:18:32;7.18;;;1.73;;
4208;SDS011;36320;48.860;2.380;2022-12-07T10:23:39;7.95;;;1.90;;
4208;SDS011;36320;48.860;2.380;2022-12-07T10:29:32;7.22;;;1.83;;
4208;SDS011;36320;48.860;2.380;2022-12-07T10:34:43;10.95;;;2.63;;
4208;SDS011;36320;48.860;2.380;2022-12-07T10:37:18;9.60;;;2.47;;
4208;SDS011;36320;48.860;2.380;2022-12-07T10:39:52;11.02;;;2.53;;
4208;SDS011;36320;48.860;2.380;2022-12-07T10:42:26;16.75;;;2.60;;
4208;SDS011;36320;48.860;2.380;2022-12-07T11:07:51;10.05;;;2.22;;
4208;SDS011;36320;48.860;2.380;2022-12-07T11:21:57;10.30;;;2.70;;
4208;SDS011;36320;48.860;2.380;2022-12-07T11:30:38;8.60;;;2.50;;
4208;SDS011;36320;48.860;2.380;2022-12-07T11:33:15;23.98;;;2.53;;
4208;SDS011;36320;48.860;2.380;2022-12-07T11:38:22;11.45;;;2.83;;
4208;SDS011;36320;48.860;2.380;2022-12-07T11:40:59;7.18;;;2.20;;
4208;SDS011;36320;48.860;2.380;2022-12-07T11:44:01;6.40;;;1.70;;
4208;SDS011;36320;48.860;2.380;2022-12-07T11:46:54;10.20;;;3.30;;
4208;SDS011;36320;48.860;2.380;2022-12-07T11:55:54;12.93;;;3.90;;
4208;SDS011;36320;48.860;2.380;2022-12-07T12:01:08;19.00;;;4.28;;
4208;SDS011;36320;48.860;2.380;2022-12-07T12:03:38;16.92;;;4.13;;
4208;SDS011;36320;48.860;2.380;2022-12-07T12:06:11;13.93;;;4.32;;
4208;SDS011;36320;48.860;2.380;2022-12-07T12:08:41;12.80;;;5.03;;
4208;SDS011;36320;48.860;2.380;2022-12-07T12:17:02;13.27;;;4.18;;
4208;SDS011;36320;48.860;2.380;2022-12-07T12:22:41;17.98;;;4.13;;
4208;SDS011;36320;48.860;2.380;2022-12-07T12:25:18;15.85;;;4.05;;
4208;SDS011;36320;48.860;2.380;2022-12-07T12:27:51;12.32;;;4.30;;
4208;SDS011;36320;48.860;2.380;2022-12-07T12:30:37;13.38;;;4.25;;
4208;SDS011;36320;48.860;2.380;2022-12-07T12:33:12;18.30;;;4.70;;
4208;SDS011;36320;48.860;2.380;2022-12-07T12:36:17;13.05;;;4.63;;
4208;SDS011;36320;48.860;2.380;2022-12-07T12:51:58;10.60;;;3.73;;
4208;SDS011;36320;48.860;2.380;2022-12-07T12:54:30;12.75;;;3.20;;
4208;SDS011;36320;48.860;2.380;2022-12-07T12:57:15;11.30;;;3.30;;
4208;SDS011;36320;48.860;2.380;2022-12-07T13:05:03;14.93;;;3.95;;
4208;SDS011;36320;48.860;2.380;2022-12-07T13:12:56;12.07;;;3.90;;
4208;SDS011;36320;48.860;2.380;2022-12-07T13:28:51;12.20;;;3.20;;
4208;SDS011;36320;48.860;2.380;2022-12-07T13:31:33;15.52;;;4.15;;
4208;SDS011;36320;48.860;2.380;2022-12-07T13:34:05;11.40;;;3.90;;
4208;SDS011;36320;48.860;2.380;2022-12-07T13:36:51;13.25;;;3.70;;
4208;SDS011;36320;48.860;2.380;2022-12-07T13:39:18;12.23;;;3.65;;
4208;SDS011;36320;48.860;2.380;2022-12-07T13:41:57;13.07;;;3.63;;
4208;SDS011;36320;48.860;2.380;2022-12-07T13:44:25;11.13;;;3.45;;
4208;SDS011;36320;48.860;2.380;2022-12-07T13:46:57;12.13;;;3.35;;
4208;SDS011;36320;48.860;2.380;2022-12-07T13:49:25;14.15;;;4.20;;
4208;SDS011;36320;48.860;2.380;2022-12-07T13:51:53;23.13;;;4.40;;
4208;SDS011;36320;48.860;2.380;2022-12-07T13:54:20;12.40;;;3.47;;
4208;SDS011;36320;48.860;2.380;2022-12-07T13:56:47;15.77;;;4.38;;
4208;SDS011;36320;48.860;2.380;2022-12-07T13:59:21;15.10;;;3.93;;
4208;SDS011;36320;48.860;2.380;2022-12-07T14:01:50;10.05;;;3.67;;
4208;SDS011;36320;48.860;2.380;2022-12-07T14:04:30;12.77;;;3.60;;
4208;SDS011;36320;48.860;2.380;2022-12-07T14:07:00;18.23;;;4.40;;
4208;SDS011;36320;48.860;2.380;2022-12-07T14:09:27;13.90;;;3.10;;
4208;SDS011;36320;48.860;2.380;2022-12-07T14:11:54;11.00;;;3.60;;
4208;SDS011;36320;48.860;2.380;2022-12-07T14:14:23;10.68;;;3.28;;
4208;SDS011;36320;48.860;2.380;2022-12-07T14:16:57;13.07;;;3.78;;
4208;SDS011;36320;48.860;2.380;2022-12-07T14:22:24;15.15;;;3.40;;
4208;SDS011;36320;48.860;2.380;2022-12-07T14:25:18;11.07;;;3.30;;
4208;SDS011;36320;48.860;2.380;2022-12-07T14:30:15;14.00;;;3.90;;
4208;SDS011;36320;48.860;2.380;2022-12-07T14:32:43;8.50;;;2.70;;
4208;SDS011;36320;48.860;2.380;2022-12-07T14:35:17;11.77;;;2.40;;
4208;SDS011;36320;48.860;2.380;2022-12-07T14:37:45;11.10;;;2.60;;
4208;SDS011;36320;48.860;2.380;2022-12-07T14:40:31;9.13;;;2.40;;
4208;SDS011;36320;48.860;2.380;2022-12-07T14:43:01;12.10;;;2.80;;
4208;SDS011;36320;48.860;2.380;2022-12-07T14:45:44;25.75;;;5.75;;
4208;SDS011;36320;48.860;2.380;2022-12-07T14:48:11;17.27;;;5.45;;
4208;SDS011;36320;48.860;2.380;2022-12-07T14:50:39;10.20;;;2.95;;
4208;SDS011;36320;48.860;2.380;2022-12-07T14:53:16;12.63;;;3.20;;
4208;SDS011;36320;48.860;2.380;2022-12-07T14:55:46;14.30;;;3.42;;
4208;SDS011;36320;48.860;2.380;2022-12-07T14:58:13;12.43;;;3.00;;
4208;SDS011;36320;48.860;2.380;2022-12-07T15:00:42;10.07;;;2.25;;
4208;SDS011;36320;48.860;2.380;2022-12-07T15:03:10;8.18;;;2.20;;
4208;SDS011;36320;48.860;2.380;2022-12-07T15:05:36;10.43;;;3.00;;
4208;SDS011;36320;48.860;2.380;2022-12-07T15:08:02;12.02;;;3.38;;
4208;SDS011;36320;48.860;2.380;2022-12-07T15:10:30;10.27;;;3.10;;
4208;SDS011;36320;48.860;2.380;2022-12-07T15:12:58;8.63;;;2.60;;
4208;SDS011;36320;48.860;2.380;2022-12-07T15:15:44;8.38;;;2.10;;
4208;SDS011;36320;48.860;2.380;2022-12-07T15:18:10;10.77;;;2.60;;
4208;SDS011;36320;48.860;2.380;2022-12-07T15:20:36;11.77;;;3.30;;
4208;SDS011;36320;48.860;2.380;2022-12-07T15:23:03;10.27;;;2.40;;
4208;SDS011;36320;48.860;2.380;2022-12-07T15:25:28;10.33;;;2.47;;
4208;SDS011;36320;48.860;2.380;2022-12-07T15:27:55;11.65;;;3.35;;
4208;SDS011;36320;48.860;2.380;2022-12-07T15:30:20;12.43;;;3.13;;
4208;SDS011;36320;48.860;2.380;2022-12-07T15:32:49;8.88;;;2.90;;
4208;SDS011;36320;48.860;2.380;2022-12-07T15:35:16;12.50;;;3.35;;
4208;SDS011;36320;48.860;2.380;2022-12-07T15:37:41;12.35;;;3.22;;
4208;SDS011;36320;48.860;2.380;2022-12-07T15:40:11;9.77;;;2.50;;
4208;SDS011;36320;48.860;2.380;2022-12-07T15:42:38;10.80;;;3.17;;
4208;SDS011;36320;48.860;2.380;2022-12-07T15:45:04;13.70;;;4.60;;
4208;SDS011;36320;48.860;2.380;2022-12-07T15:47:33;14.48;;;3.97;;
4208;SDS011;36320;48.860;2.380;2022-12-07T15:50:04;16.67;;;3.30;;
4208;SDS011;36320;48.860;2.380;2022-12-07T15:52:33;8.80;;;2.72;;
4208;SDS011;36320;48.860;2.380;2022-12-07T15:54:59;12.45;;;3.72;;
4208;SDS011;36320;48.860;2.380;2022-12-07T15:57:27;11.15;;;3.15;;
4208;SDS011;36320;48.860;2.380;2022-12-07T15:59:53;12.40;;;3.90;;
4208;SDS011;36320;48.860;2.380;2022-12-07T16:02:19;12.10;;;3.50;;
4208;SDS011;36320;48.860;2.380;2022-12-07T16:04:45;18.48;;;5.03;;
4208;SDS011;36320;48.860;2.380;2022-12-07T16:07:11;14.95;;;5.32;;
4208;SDS011;36320;48.860;2.380;2022-12-07T16:09:39;13.52;;;3.55;;
4208;SDS011;36320;48.860;2.380;2022-12-07T16:12:05;9.77;;;3.70;;
4208;SDS011;36320;48.860;2.380;2022-12-07T16:14:31;12.10;;;3.60;;
4208;SDS011;36320;48.860;2.380;2022-12-07T16:16:58;35.83;;;8.63;;
4208;SDS011;36320;48.860;2.380;2022-12-07T16:19:24;14.80;;;4.75;;
4208;SDS011;36320;48.860;2.380;2022-12-07T16:21:50;10.05;;;2.72;;
4208;SDS011;36320;48.860;2.380;2022-12-07T16:24:16;8.20;;;2.60;;
4208;SDS011;36320;48.860;2.380;2022-12-07T16:26:44;20.00;;;5.93;;
4208;SDS011;36320;48.860;2.380;2022-12-07T16:29:11;16.23;;;4.80;;
4208;SDS011;36320;48.860;2.380;2022-12-07T16:31:38;9.90;;;3.05;;
4208;SDS011;36320;48.860;2.380;2022-12-07T16:34:05;11.13;;;3.08;;
4208;SDS011;36320;48.860;2.380;2022-12-07T16:36:33;16.40;;;4.97;;
4208;SDS011;36320;48.860;2.380;2022-12-07T16:38:59;8.97;;;2.60;;
4208;SDS011;36320;48.860;2.380;2022-12-07T16:41:26;12.80;;;4.63;;
4208;SDS011;36320;48.860;2.380;2022-12-07T16:43:53;13.02;;;3.47;;
4208;SDS011;36320;48.860;2.380;2022-12-07T16:46:20;16.00;;;4.10;;
4208;SDS011;36320;48.860;2.380;2022-12-07T16:48:45;12.52;;;3.70;;
4208;SDS011;36320;48.860;2.380;2022-12-07T16:51:15;10.70;;;3.40;;
4208;SDS011;36320;48.860;2.380;2022-12-07T16:53:41;10.82;;;3.80;;
4208;SDS011;36320;48.860;2.380;2022-12-07T16:56:11;14.13;;;5.32;;
4208;SDS011;36320;48.860;2.380;2022-12-07T16:58:43;11.73;;;3.10;;
4208;SDS011;36320;48.860;2.380;2022-12-07T17:01:12;13.65;;;3.60;;
4208;SDS011;36320;48.860;2.380;2022-12-07T17:03:42;25.48;;;7.57;;
4208;SDS011;36320;48.860;2.380;2022-12-07T17:06:17;10.07;;;3.60;;
4208;SDS011;36320;48.860;2.380;2022-12-07T17:08:47;14.20;;;3.77;;
4208;SDS011;36320;48.860;2.380;2022-12-07T17:11:21;15.80;;;5.30;;
4208;SDS011;36320;48.860;2.380;2022-12-07T17:13:52;12.55;;;4.70;;
4208;SDS011;36320;48.860;2.380;2022-12-07T17:16:36;12.90;;;3.85;;
4208;SDS011;36320;48.860;2.380;2022-12-07T17:19:03;12.60;;;4.20;;
4208;SDS011;36320;48.860;2.380;2022-12-07T17:21:33;14.20;;;4.40;;
4208;SDS011;36320;48.860;2.380;2022-12-07T17:24:07;12.20;;;4.40;;
4208;SDS011;36320;48.860;2.380;2022-12-07T17:26:34;11.05;;;3.78;;
4208;SDS011;36320;48.860;2.380;2022-12-07T17:29:00;12.20;;;3.70;;
4208;SDS011;36320;48.860;2.380;2022-12-07T17:31:27;14.25;;;3.80;;
4208;SDS011;36320;48.860;2.380;2022-12-07T17:33:53;12.98;;;4.40;;
4208;SDS011;36320;48.860;2.380;2022-12-07T17:36:28;19.23;;;4.68;;